createdAt,value
2023-01-25T00:01:44.281Z,3.60
2023-01-25T00:04:12.342Z,3.60
2023-01-25T00:06:40.359Z,3.60
2023-01-25T00:09:08.301Z,3.50
2023-01-25T00:11:37.651Z,3.50
2023-01-25T00:14:06.530Z,3.60
2023-01-25T00:16:34.781Z,3.60
2023-01-25T00:19:04.239Z,3.60
2023-01-25T00:21:32.223Z,3.60
2023-01-25T00:24:00.260Z,3.60
2023-01-25T00:26:30.830Z,3.70
2023-01-25T00:28:58.857Z,3.60
2023-01-25T00:31:37.796Z,3.50
2023-01-25T00:34:39.714Z,3.60
2023-01-25T00:37:19.283Z,3.50
2023-01-25T00:39:47.286Z,3.50
2023-01-25T00:42:15.875Z,3.50
2023-01-25T00:44:46.720Z,3.50
2023-01-25T00:47:15.135Z,3.50
2023-01-25T00:49:46.002Z,3.50
2023-01-25T00:52:14.774Z,3.50
2023-01-25T00:54:43.164Z,3.50
2023-01-25T00:57:11.267Z,3.40
2023-01-25T00:59:44.301Z,3.40
2023-01-25T01:02:12.693Z,3.40
2023-01-25T01:04:40.731Z,3.40
2023-01-25T01:07:15.202Z,3.40
2023-01-25T01:09:43.175Z,3.50
2023-01-25T01:12:11.228Z,3.50
2023-01-25T01:14:39.281Z,3.50
2023-01-25T01:17:07.304Z,3.50
2023-01-25T01:19:35.377Z,3.60
2023-01-25T01:22:03.533Z,3.60
2023-01-25T01:24:33.004Z,3.60
2023-01-25T01:27:00.962Z,3.60
2023-01-25T01:29:28.899Z,3.50
2023-01-25T01:31:57.310Z,3.50
2023-01-25T01:34:27.171Z,3.50
2023-01-25T01:36:55.947Z,3.50
2023-01-25T01:39:24.564Z,3.50
2023-01-25T01:41:54.488Z,3.40
2023-01-25T01:44:43.393Z,3.40
2023-01-25T01:47:16.603Z,3.40
2023-01-25T01:49:48.493Z,3.40
2023-01-25T01:52:21.148Z,3.30
2023-01-25T01:54:54.232Z,3.30
2023-01-25T01:57:29.091Z,3.40
2023-01-25T02:00:01.575Z,3.30
2023-01-25T02:02:41.841Z,3.40
2023-01-25T02:05:18.492Z,3.40
2023-01-25T02:07:50.171Z,3.40
2023-01-25T02:10:21.963Z,3.40
2023-01-25T02:12:53.826Z,3.40
2023-01-25T02:15:21.946Z,3.40
2023-01-25T02:17:50.876Z,3.30
2023-01-25T02:20:24.359Z,3.40
2023-01-25T02:23:00.042Z,3.30
2023-01-25T02:25:30.079Z,3.30
2023-01-25T02:28:02.874Z,3.30
2023-01-25T02:30:31.798Z,3.20
2023-01-25T02:32:59.795Z,3.20
2023-01-25T02:35:40.092Z,3.20
2023-01-25T02:38:09.300Z,3.20
2023-01-25T02:40:45.448Z,3.20
2023-01-25T02:43:15.511Z,3.30
2023-01-25T02:45:46.964Z,3.30
2023-01-25T02:48:15.565Z,3.20
2023-01-25T02:50:43.968Z,3.30
2023-01-25T02:53:12.997Z,3.20
2023-01-25T02:55:42.392Z,3.20
2023-01-25T02:58:10.344Z,3.10
2023-01-25T03:00:38.323Z,3.10
2023-01-25T03:03:06.395Z,3.20
2023-01-25T03:05:35.206Z,3.20
2023-01-25T03:08:03.540Z,3.10
2023-01-25T03:10:31.605Z,3.10
2023-01-25T03:13:00.977Z,3.20
2023-01-25T03:15:29.213Z,3.20
2023-01-25T03:17:58.110Z,3.20
2023-01-25T03:20:26.107Z,3.10
2023-01-25T03:22:54.110Z,3.10
2023-01-25T03:25:23.799Z,3.10
2023-01-25T03:28:01.182Z,3.10
2023-01-25T03:30:29.494Z,3.10
2023-01-25T03:32:57.646Z,3.10
2023-01-25T03:35:25.816Z,3.20
2023-01-25T03:37:55.010Z,3.20
2023-01-25T03:40:23.015Z,3.20
2023-01-25T03:42:53.525Z,3.10
2023-01-25T03:45:22.943Z,3.10
2023-01-25T03:47:51.479Z,3.10
2023-01-25T03:50:20.770Z,3.20
2023-01-25T03:52:53.098Z,3.10
2023-01-25T03:55:21.189Z,3.10
2023-01-25T03:57:50.172Z,3.10
2023-01-25T04:00:20.032Z,3.00
2023-01-25T04:02:56.740Z,3.10
2023-01-25T04:05:24.788Z,3.10
2023-01-25T04:07:52.862Z,3.20
2023-01-25T04:10:29.670Z,3.10
2023-01-25T04:12:57.719Z,3.20
2023-01-25T04:15:25.805Z,3.10
2023-01-25T04:17:57.246Z,3.10
2023-01-25T04:20:25.598Z,3.10
2023-01-25T04:22:55.535Z,3.20
2023-01-25T04:25:28.372Z,3.20
2023-01-25T04:27:56.538Z,3.20
2023-01-25T04:30:25.391Z,3.20
2023-01-25T04:32:54.701Z,3.20
2023-01-25T04:35:28.807Z,3.30
2023-01-25T04:37:57.730Z,3.30
2023-01-25T04:40:29.682Z,3.30
2023-01-25T04:42:57.827Z,3.30
2023-01-25T04:45:30.520Z,3.30
2023-01-25T04:48:03.153Z,3.30
2023-01-25T04:50:34.628Z,3.40
2023-01-25T04:53:02.858Z,3.30
2023-01-25T04:55:33.741Z,3.40
2023-01-25T04:58:02.855Z,3.30
2023-01-25T05:00:32.343Z,3.30
2023-01-25T05:03:01.875Z,3.20
2023-01-25T05:05:29.929Z,3.30
2023-01-25T05:08:00.904Z,3.30
2023-01-25T05:10:30.413Z,3.20
2023-01-25T05:13:18.625Z,3.30
2023-01-25T05:15:47.763Z,3.20
2023-01-25T05:18:15.669Z,3.20
2023-01-25T05:20:44.287Z,3.20
2023-01-25T05:23:14.512Z,3.20
2023-01-25T05:26:01.894Z,3.30
2023-01-25T05:28:33.339Z,3.30
2023-01-25T05:31:17.620Z,3.20
2023-01-25T05:33:45.544Z,3.20
2023-01-25T05:36:13.595Z,3.10
2023-01-25T05:38:44.464Z,3.10
2023-01-25T05:41:14.179Z,3.20
2023-01-25T05:43:42.277Z,3.20
2023-01-25T05:46:11.117Z,3.20
2023-01-25T05:48:39.517Z,3.20
2023-01-25T05:51:07.809Z,3.20
2023-01-25T05:53:35.878Z,3.20
2023-01-25T05:56:10.269Z,3.20
2023-01-25T05:58:38.412Z,3.20
2023-01-25T06:01:07.860Z,3.20
2023-01-25T06:03:47.023Z,3.20
2023-01-25T06:06:15.599Z,3.20
2023-01-25T06:08:44.775Z,3.20
2023-01-25T06:11:16.181Z,3.20
2023-01-25T06:13:47.895Z,3.10
2023-01-25T06:16:16.427Z,3.20
2023-01-25T06:18:44.989Z,3.10
2023-01-25T06:21:23.726Z,3.10
2023-01-25T06:23:51.653Z,3.10
2023-01-25T06:26:21.369Z,3.20
2023-01-25T06:28:49.276Z,3.10
2023-01-25T06:31:18.874Z,3.10
2023-01-25T06:33:50.196Z,3.20
2023-01-25T06:36:21.259Z,3.20
2023-01-25T06:38:50.859Z,3.20
2023-01-25T06:41:19.199Z,3.20
2023-01-25T06:43:50.912Z,3.20
2023-01-25T06:46:19.417Z,3.30
2023-01-25T06:48:47.350Z,3.40
2023-01-25T06:51:16.258Z,3.40
2023-01-25T06:53:46.437Z,3.40
2023-01-25T06:56:17.579Z,3.40
2023-01-25T06:58:46.154Z,3.50
2023-01-25T07:01:19.643Z,3.50
2023-01-25T07:03:49.900Z,3.50
2023-01-25T07:06:18.183Z,3.60
2023-01-25T07:08:46.597Z,3.60
2023-01-25T07:11:15.106Z,3.60
2023-01-25T07:13:45.566Z,3.60
2023-01-25T07:16:16.836Z,3.60
2023-01-25T07:18:45.101Z,3.60
2023-01-25T07:21:15.733Z,3.70
2023-01-25T07:23:44.794Z,3.70
2023-01-25T07:26:17.819Z,3.70
2023-01-25T07:28:46.853Z,3.70
2023-01-25T07:31:16.877Z,3.70
2023-01-25T07:33:45.274Z,3.70
2023-01-25T07:36:13.781Z,3.60
2023-01-25T07:38:41.702Z,3.50
2023-01-25T07:41:09.656Z,3.60
2023-01-25T07:43:37.538Z,3.60
2023-01-25T07:46:07.469Z,3.50
2023-01-25T07:48:36.691Z,3.50
2023-01-25T07:51:13.038Z,3.50
2023-01-25T07:53:41.478Z,3.60
2023-01-25T07:56:10.471Z,3.60
2023-01-25T07:58:38.589Z,3.50
2023-01-25T08:01:09.950Z,3.60
2023-01-25T08:03:39.629Z,3.60
2023-01-25T08:06:09.026Z,3.60
2023-01-25T08:08:38.776Z,3.60
2023-01-25T08:11:11.163Z,3.60
2023-01-25T08:13:39.142Z,3.60
2023-01-25T08:16:07.333Z,3.60
2023-01-25T08:18:36.088Z,3.60
2023-01-25T08:21:06.661Z,3.60
2023-01-25T08:23:34.595Z,3.70
2023-01-25T08:26:06.506Z,3.80
2023-01-25T08:28:35.663Z,3.70
2023-01-25T08:31:08.008Z,3.70
2023-01-25T08:33:36.199Z,3.60
2023-01-25T08:36:04.606Z,3.60
2023-01-25T08:38:33.989Z,3.60
2023-01-25T08:41:06.637Z,3.60
2023-01-25T08:43:35.593Z,3.60
2023-01-25T08:46:04.020Z,3.50
2023-01-25T08:48:32.043Z,3.50
2023-01-25T08:51:00.139Z,3.50
2023-01-25T08:53:29.053Z,3.40
2023-01-25T08:56:03.116Z,3.40
2023-01-25T08:58:31.754Z,3.40
2023-01-25T09:01:04.252Z,3.40
2023-01-25T09:03:32.508Z,3.50
2023-01-25T09:06:00.526Z,3.60
2023-01-25T09:08:28.453Z,3.60
2023-01-25T09:11:01.209Z,3.50
2023-01-25T09:13:29.252Z,3.60
2023-01-25T09:16:00.896Z,3.50
2023-01-25T09:18:29.542Z,3.50
2023-01-25T09:20:57.505Z,3.60
2023-01-25T09:23:26.841Z,3.60
2023-01-25T09:25:59.557Z,3.60
2023-01-25T09:28:29.702Z,3.70
2023-01-25T09:31:18.877Z,3.70
2023-01-25T09:34:03.719Z,3.70
2023-01-25T09:36:31.603Z,3.70
2023-01-25T09:38:59.884Z,3.60
2023-01-25T09:41:47.427Z,3.70
2023-01-25T09:44:31.861Z,3.80
2023-01-25T09:47:02.896Z,3.70
2023-01-25T09:49:44.133Z,3.70
2023-01-25T09:52:30.045Z,3.70
2023-01-25T09:54:58.775Z,3.70
2023-01-25T09:57:34.287Z,3.80
2023-01-25T10:00:08.481Z,3.80
2023-01-25T10:02:45.228Z,3.80
2023-01-25T10:05:17.805Z,3.80
2023-01-25T10:07:55.882Z,3.80
2023-01-25T10:10:29.122Z,3.80
2023-01-25T10:12:58.362Z,3.80
2023-01-25T10:15:33.222Z,3.80
2023-01-25T10:18:06.456Z,3.80
2023-01-25T10:20:41.674Z,3.80
2023-01-25T10:23:28.125Z,3.80
2023-01-25T10:25:59.573Z,3.80
2023-01-25T10:28:40.631Z,3.80
2023-01-25T10:31:17.491Z,3.80
2023-01-25T10:33:47.265Z,3.80
2023-01-25T10:36:17.145Z,3.70
2023-01-25T10:38:47.253Z,3.70
2023-01-25T10:41:20.856Z,3.60
2023-01-25T10:44:10.096Z,3.60
2023-01-25T10:46:41.745Z,3.70
2023-01-25T10:49:22.718Z,3.70
2023-01-25T10:51:50.933Z,3.80
2023-01-25T10:54:18.803Z,3.80
2023-01-25T10:56:47.780Z,3.90
2023-01-25T10:59:21.604Z,3.90
2023-01-25T11:01:49.640Z,3.90
2023-01-25T11:04:33.186Z,3.90
2023-01-25T11:07:03.610Z,3.90
2023-01-25T11:09:40.937Z,3.90
2023-01-25T11:12:19.571Z,3.90
2023-01-25T11:14:53.338Z,3.80
2023-01-25T11:17:31.640Z,3.70
2023-01-25T11:20:17.363Z,3.70
2023-01-25T11:22:54.006Z,3.70
2023-01-25T11:25:33.546Z,3.80
2023-01-25T11:28:12.792Z,3.80
2023-01-25T11:30:42.115Z,3.80
2023-01-25T11:33:12.612Z,3.90
2023-01-25T11:35:53.601Z,3.90
2023-01-25T11:38:24.702Z,3.90
2023-01-25T11:40:58.577Z,3.80
2023-01-25T11:43:44.368Z,3.80
2023-01-25T11:46:26.308Z,3.70
2023-01-25T11:49:09.893Z,3.50
2023-01-25T11:51:44.275Z,3.60
2023-01-25T11:54:36.667Z,3.60
2023-01-25T11:57:13.285Z,3.70
2023-01-25T12:00:03.588Z,3.70
2023-01-25T12:03:05.585Z,3.70
2023-01-25T12:05:44.691Z,3.80
2023-01-25T12:08:38.763Z,3.70
2023-01-25T12:11:13.980Z,3.60
2023-01-25T12:13:51.323Z,3.70
2023-01-25T12:16:44.750Z,3.80
2023-01-25T12:19:35.222Z,3.70
2023-01-25T12:22:30.069Z,3.70
2023-01-25T12:25:03.949Z,3.70
2023-01-25T12:27:46.327Z,3.70
2023-01-25T12:30:19.714Z,3.70
2023-01-25T12:32:59.488Z,3.70
2023-01-25T12:35:36.924Z,3.80
2023-01-25T12:38:11.835Z,3.80
2023-01-25T12:40:49.875Z,3.80
2023-01-25T12:43:22.707Z,3.80
2023-01-25T12:45:52.403Z,3.80
2023-01-25T12:48:24.973Z,3.80
2023-01-25T12:50:57.234Z,3.80
2023-01-25T12:53:28.542Z,3.70
2023-01-25T12:55:58.571Z,3.70
2023-01-25T12:58:38.177Z,3.60
2023-01-25T13:01:13.984Z,3.60
2023-01-25T13:04:00.060Z,3.50
2023-01-25T13:06:40.364Z,3.70
2023-01-25T13:09:14.996Z,3.70
2023-01-25T13:11:44.634Z,3.80
2023-01-25T13:14:30.370Z,3.80
2023-01-25T13:17:13.416Z,3.80
2023-01-25T13:19:45.359Z,3.80
2023-01-25T13:22:35.391Z,3.90
2023-01-25T13:25:20.731Z,3.80
2023-01-25T13:27:48.776Z,3.80
2023-01-25T13:30:32.881Z,3.80
2023-01-25T13:33:07.425Z,3.70
2023-01-25T13:35:40.819Z,3.60
2023-01-25T13:38:38.347Z,3.60
2023-01-25T13:41:12.026Z,3.60
2023-01-25T13:43:42.604Z,3.70
2023-01-25T13:46:14.768Z,3.70
2023-01-25T13:49:08.073Z,3.80
2023-01-25T13:51:40.309Z,3.90
2023-01-25T13:54:16.866Z,3.80
2023-01-25T13:56:45.529Z,3.80
2023-01-25T13:59:27.494Z,3.90
2023-01-25T14:01:57.093Z,3.90
2023-01-25T14:04:25.350Z,3.90
2023-01-25T14:06:57.922Z,3.80
2023-01-25T14:09:27.471Z,3.80
2023-01-25T14:11:58.287Z,3.70
2023-01-25T14:14:28.573Z,3.70
2023-01-25T14:17:14.073Z,3.70
2023-01-25T14:19:44.406Z,3.60
2023-01-25T14:22:18.032Z,3.60
2023-01-25T14:24:47.368Z,3.50
2023-01-25T14:27:17.073Z,3.50
2023-01-25T14:29:49.642Z,3.70
2023-01-25T14:32:21.659Z,3.70
2023-01-25T14:34:49.572Z,3.70
2023-01-25T14:37:20.821Z,3.70
2023-01-25T14:39:51.916Z,3.70
2023-01-25T14:42:20.280Z,3.70
2023-01-25T14:44:48.681Z,3.90
2023-01-25T14:47:29.902Z,3.80
2023-01-25T14:50:30.604Z,3.80
2023-01-25T14:52:59.803Z,3.70
2023-01-25T14:55:29.557Z,3.70
2023-01-25T14:58:00.664Z,3.70
2023-01-25T15:00:32.054Z,3.60
2023-01-25T15:03:02.147Z,3.70
2023-01-25T15:05:32.981Z,3.70
2023-01-25T15:08:16.507Z,3.60
2023-01-25T15:10:56.912Z,3.50
2023-01-25T15:13:26.196Z,3.50
2023-01-25T15:16:03.445Z,3.40
2023-01-25T15:18:48.401Z,3.40
2023-01-25T15:21:18.616Z,3.40
2023-01-25T15:23:48.298Z,3.50
2023-01-25T15:26:20.247Z,3.50
2023-01-25T15:28:48.937Z,3.60
2023-01-25T15:31:28.120Z,3.60
2023-01-25T15:33:57.007Z,3.60
2023-01-25T15:36:25.301Z,3.60
2023-01-25T15:38:53.473Z,3.60
2023-01-25T15:41:21.759Z,3.70
2023-01-25T15:43:50.286Z,3.60
2023-01-25T15:46:22.662Z,3.70
2023-01-25T15:48:51.677Z,3.60
2023-01-25T15:51:20.100Z,3.50
2023-01-25T15:53:48.057Z,3.40
2023-01-25T15:56:18.856Z,3.30
2023-01-25T15:58:49.999Z,3.20
2023-01-25T16:01:19.878Z,3.20
2023-01-25T16:03:47.815Z,3.20
2023-01-25T16:06:36.558Z,3.20
2023-01-25T16:09:11.977Z,3.20
2023-01-25T16:11:39.915Z,3.30
2023-01-25T16:14:07.907Z,3.30
2023-01-25T16:16:40.858Z,3.30
2023-01-25T16:19:13.144Z,3.30
2023-01-25T16:21:41.612Z,3.30
2023-01-25T16:24:10.642Z,3.40
2023-01-25T16:26:40.717Z,3.40
2023-01-25T16:29:08.690Z,3.40
2023-01-25T16:31:38.059Z,3.40
2023-01-25T16:34:06.794Z,3.30
2023-01-25T16:36:35.557Z,3.30
2023-01-25T16:39:10.207Z,3.30
2023-01-25T16:41:38.746Z,3.30
2023-01-25T16:44:06.634Z,3.40
2023-01-25T16:46:34.850Z,3.50
2023-01-25T16:49:06.804Z,3.60
2023-01-25T16:51:34.807Z,3.60
2023-01-25T16:54:02.720Z,3.50
2023-01-25T16:56:33.357Z,3.40
2023-01-25T16:59:03.690Z,3.30
2023-01-25T17:01:32.121Z,3.20
2023-01-25T17:04:00.117Z,3.10
2023-01-25T17:06:31.774Z,3.10
2023-01-25T17:09:12.637Z,3.10
2023-01-25T17:11:44.918Z,3.10
2023-01-25T17:14:15.654Z,3.10
2023-01-25T17:16:44.978Z,3.10
2023-01-25T17:19:15.382Z,3.10
2023-01-25T17:21:45.026Z,3.10
2023-01-25T17:24:14.529Z,3.10
2023-01-25T17:26:42.972Z,3.10
2023-01-25T17:29:11.223Z,3.10
2023-01-25T17:31:42.013Z,3.10
2023-01-25T17:34:14.911Z,3.10
2023-01-25T17:36:44.675Z,3.20
2023-01-25T17:39:15.343Z,3.40
2023-01-25T17:41:44.096Z,3.30
2023-01-25T17:44:12.691Z,3.30
2023-01-25T17:46:40.747Z,3.30
2023-01-25T17:49:12.233Z,3.30
2023-01-25T17:51:40.502Z,3.20
2023-01-25T17:54:11.458Z,3.20
2023-01-25T17:56:39.899Z,3.20
2023-01-25T17:59:11.401Z,3.30
2023-01-25T18:01:42.509Z,3.30
2023-01-25T18:04:11.011Z,3.30
2023-01-25T18:06:39.156Z,3.30
2023-01-25T18:09:07.695Z,3.40
2023-01-25T18:11:39.960Z,3.40
2023-01-25T18:14:09.509Z,3.40
2023-01-25T18:16:39.678Z,3.40
2023-01-25T18:19:08.358Z,3.40
2023-01-25T18:21:36.787Z,3.40
2023-01-25T18:24:07.059Z,3.40
2023-01-25T18:26:37.996Z,3.30
2023-01-25T18:29:32.590Z,3.30
2023-01-25T18:32:00.704Z,3.30
2023-01-25T18:34:28.637Z,3.30
2023-01-25T18:36:59.237Z,3.40
2023-01-25T18:39:28.150Z,3.40
2023-01-25T18:41:57.454Z,3.30
2023-01-25T18:44:25.591Z,3.30
2023-01-25T18:46:53.465Z,3.20
2023-01-25T18:49:21.448Z,3.20
2023-01-25T18:52:08.457Z,3.20
2023-01-25T18:54:37.228Z,3.20
2023-01-25T18:57:06.704Z,3.20
2023-01-25T18:59:34.690Z,3.20
2023-01-25T19:02:02.670Z,3.20
2023-01-25T19:04:30.799Z,3.30
2023-01-25T19:07:01.337Z,3.30
2023-01-25T19:09:30.136Z,3.30
2023-01-25T19:11:58.462Z,3.30
2023-01-25T19:14:27.807Z,3.40
2023-01-25T19:16:55.698Z,3.50
2023-01-25T19:19:23.865Z,3.50
2023-01-25T19:21:51.847Z,3.50
2023-01-25T19:24:20.828Z,3.50
2023-01-25T19:26:48.818Z,3.50
2023-01-25T19:29:16.988Z,3.50
2023-01-25T19:31:46.367Z,3.50
2023-01-25T19:34:14.392Z,3.50
2023-01-25T19:36:45.711Z,3.50
2023-01-25T19:39:14.403Z,3.50
2023-01-25T19:41:42.420Z,3.60
2023-01-25T19:44:12.560Z,3.60
2023-01-25T19:46:40.905Z,3.70
2023-01-25T19:49:13.132Z,3.60
2023-01-25T19:51:44.351Z,3.60
2023-01-25T19:54:16.703Z,3.60
2023-01-25T19:56:46.452Z,3.60
2023-01-25T19:59:15.817Z,3.60
2023-01-25T20:01:45.184Z,3.70
2023-01-25T20:04:19.565Z,3.60
2023-01-25T20:06:48.168Z,3.60
2023-01-25T20:09:17.329Z,3.60
2023-01-25T20:11:46.102Z,3.60
2023-01-25T20:14:15.133Z,3.60
2023-01-25T20:16:43.128Z,3.50
2023-01-25T20:19:12.779Z,3.50
2023-01-25T20:21:42.094Z,3.40
2023-01-25T20:24:10.565Z,3.40
2023-01-25T20:26:42.906Z,3.40
2023-01-25T20:29:12.098Z,3.40
2023-01-25T20:31:41.712Z,3.40
2023-01-25T20:34:12.743Z,3.40
2023-01-25T20:36:42.999Z,3.50
2023-01-25T20:39:13.435Z,3.40
2023-01-25T20:41:41.862Z,3.50
2023-01-25T20:44:11.332Z,3.40
2023-01-25T20:46:40.492Z,3.50
2023-01-25T20:49:12.623Z,3.50
2023-01-25T20:51:42.880Z,3.40
2023-01-25T20:54:11.225Z,3.40
2023-01-25T20:56:39.567Z,3.40
2023-01-25T20:59:07.698Z,3.40
2023-01-25T21:01:37.041Z,3.30
2023-01-25T21:04:06.889Z,3.30
2023-01-25T21:06:35.580Z,3.40
2023-01-25T21:09:05.828Z,3.40
2023-01-25T21:11:34.617Z,3.40
2023-01-25T21:14:02.688Z,3.50
2023-01-25T21:16:31.078Z,3.40
2023-01-25T21:19:00.565Z,3.40
2023-01-25T21:21:30.195Z,3.30
2023-01-25T21:24:02.363Z,3.30
2023-01-25T21:26:33.153Z,3.20
2023-01-25T21:29:06.260Z,3.30
2023-01-25T21:31:35.936Z,3.40
2023-01-25T21:34:04.833Z,3.40
2023-01-25T21:36:33.204Z,3.40
2023-01-25T21:39:01.118Z,3.40
2023-01-25T21:41:33.455Z,3.30
2023-01-25T21:44:20.079Z,3.30
2023-01-25T21:49:55.885Z,3.30
2023-01-25T21:52:23.811Z,3.30
2023-01-25T21:54:51.695Z,3.30
2023-01-25T21:57:21.041Z,3.30
2023-01-25T21:59:49.030Z,3.30
2023-01-25T22:02:17.071Z,3.40
2023-01-25T22:04:44.986Z,3.30
2023-01-25T22:07:13.001Z,3.30
2023-01-25T22:09:40.918Z,3.30
2023-01-25T22:12:09.260Z,3.30
2023-01-25T22:14:38.563Z,3.30
2023-01-25T22:17:06.448Z,3.30
2023-01-25T22:19:34.369Z,3.30
2023-01-25T22:22:02.328Z,3.30
2023-01-25T22:24:30.247Z,3.20
2023-01-25T22:27:09.820Z,3.20
2023-01-25T22:29:39.051Z,3.10
2023-01-25T22:32:07.102Z,3.10
2023-01-25T22:34:35.033Z,3.10
2023-01-25T22:37:02.921Z,3.10
2023-01-25T22:39:30.827Z,3.10
2023-01-25T22:41:58.791Z,3.20
2023-01-25T22:44:26.662Z,3.20
2023-01-25T22:46:55.920Z,3.10
2023-01-25T22:49:23.834Z,3.10
2023-01-25T22:51:51.704Z,3.10
2023-01-25T22:54:19.796Z,3.00
2023-01-25T22:56:47.676Z,3.00
2023-01-25T22:59:19.070Z,3.00
2023-01-25T23:01:47.146Z,3.00
2023-01-25T23:04:16.460Z,3.00
2023-01-25T23:06:44.436Z,2.90
2023-01-25T23:09:12.566Z,2.80
2023-01-25T23:11:40.441Z,2.80
2023-01-25T23:14:29.718Z,2.80
2023-01-25T23:17:17.882Z,2.80
2023-01-25T23:19:46.245Z,2.70
2023-01-25T23:22:14.324Z,2.60
2023-01-25T23:24:43.233Z,2.60
2023-01-25T23:27:12.498Z,2.60
2023-01-25T23:29:40.644Z,2.60
2023-01-25T23:32:08.558Z,2.70
2023-01-25T23:34:39.460Z,2.70
2023-01-25T23:37:08.759Z,2.70
2023-01-25T23:39:36.694Z,2.70
2023-01-25T23:42:05.128Z,2.60
2023-01-25T23:44:33.099Z,2.60
2023-01-25T23:47:01.625Z,2.60
2023-01-25T23:49:29.567Z,2.50
2023-01-25T23:51:57.518Z,2.50
2023-01-25T23:54:27.035Z,2.50
2023-01-25T23:56:58.527Z,2.50
2023-01-25T23:59:26.694Z,2.50
